Terminal Aerodrome Forecast
Issued by NWS Northern Indiana

Home | Current Version | Previous Version | Graphics & Text | Print | Product List | Glossary On
Versions: 1 2 3 4 5 6 7 8 9 10 11 12 13 14 15
000
FTUS43 KIWX 271500 AAA
TAFFWA
TAF AMD
KFWA 271548Z 2716/2812 21014KT 6SM -DZ BR OVC007
     FM272200 25012KT P6SM OVC010
     FM280300 26011KT P6SM BKN025=

USA.gov is the U.S. government's official web portal to all federal, state and local government web resources and services.